Bunker Hill, IN (46914)

9:24 PM EST on December 19, 2014 (GMT -0500)
Grissom Air Reserve Base | Change Station
CLOSE
Current Station
Airport
Location: Peru,
Elevation: 810 ft
Nearby Weather Stations

Elev 810 ft 40.65 °N, 86.15 °W | Updated 26 minutes ago

Overcast
Overcast
29 °F
Feels Like 24 °F
N
5
Wind Variable Wind from WSW

Today
High -- | Low -- °F
--% Chance of Precip.
Yesterday
High -- | Low -- °F
Precip. -- in
8:03 AM 5:19 PM
Waning Crescent, 5% visible
Pressure 30.31 in
Visibility 9.0 miles
Clouds Overcast 2200 ft
Windchill 24 °F
Dew Point 29 °F
Humidity 100%
Rainfall 0.00 in
Snow Depth Not available.
UV 0 out of 12
Pollen .10 out of 12
Air Quality Not available.
Flu Activity Not available.
METAR KGUS 200158Z AUTO 24004KT 9SM R23/5500FT OVC022 M02/M02 A3027 RMK AO2 SLP264 T10161016 TSNO

More Conditions Fewer Conditions

Pressure 30.31 in
Visibility 9.0 miles
Clouds Overcast 2200 ft
Windchill 24 °F
Dew Point 29 °F
Humidity 100%
Rainfall 0.00 in
Snow Depth Not available.
UV 0 out of 12
Pollen .10 out of 12
Air Quality Not available.
Flu Activity Not available.
METAR KGUS 200158Z AUTO 24004KT 9SM R23/5500FT OVC022 M02/M02 A3027 RMK AO2 SLP264 T10161016 TSNO

More Conditions Fewer Conditions

10-Day Weather Forecast

Almanac

Astronomy

Dec. 19, 2014 Rise Set
Actual Time
Civil Twilight
Nautical Twilight
Astronomical Twilight
Moon
Length of Visible Light
Length of Day
Tomorrow will be .
, % of the Moon is Illuminated

Today's Extremes

State Highs State Lows

Community

WunderPhotos

Upload Photos

1,779,113 photos uploaded!

WunderBlogs® & News

Nearby

Air Quality

  Air Quality AQ Index Pollutant
Not available.

Snow Depth

Station Depth Elevation

Earthquake Activity

City Distance Mag. Time & Date
Minimum magnitude displayed is 2.5.

Coastal Water Temperatures

Place Temperature

Nearby Weather Stations